Time;durP1;ratioP1;P1;durP2;ratioP2;P2;SDS_P1;SDS_P2;PMS_P1;PMS_P2;Temp;Humidity;BMP_temperature;BMP_pressure;BME280_temperature;BME280_humidity;BME280_pressure;Samples;Min_cycle;Max_cycle;Signal;HPM_P1;HPM_P2
2021/07/04 05:02:21;;;;;;;23.63;21.73;;;;;;;;;;5159732;23;20463;-69
2021/07/04 05:05:07;;;;;;;20.57;18.97;;;;;;;;;;4935843;29;20214;-71
2021/07/04 05:07:52;;;;;;;19.33;17.67;;;;;;;;;;4935871;29;20211;-71
2021/07/04 05:10:37;;;;;;;18.87;17.27;;;;;;;;;;4933757;29;20238;-72
2021/07/04 05:13:22;;;;;;;19.80;18.13;;;;;;;;;;4915918;29;20267;-71
2021/07/04 05:16:07;;;;;;;19.90;18.20;;;;;;;;;;4959540;23;20311;-72
2021/07/04 05:18:53;;;;;;;20.57;18.87;;;;;;;;;;4954640;29;20213;-71
2021/07/04 05:21:38;;;;;;;21.27;19.33;;;;;;;;;;4954812;29;20306;-71
2021/07/04 05:24:23;;;;;;;19.67;17.97;;;;;;;;;;4954049;29;20338;-72
2021/07/04 05:27:08;;;;;;;18.57;16.97;;;;;;;;;;4935582;29;20211;-71
2021/07/04 05:29:53;;;;;;;19.67;18.10;;;;;;;;;;4935481;29;20215;-72
2021/07/04 05:32:38;;;;;;;20.17;18.47;;;;;;;;;;4934595;29;20238;-71
2021/07/04 05:35:24;;;;;;;22.33;20.43;;;;;;;;;;4935292;29;20251;-72
2021/07/04 05:38:16;;;;;;;22.43;20.47;;;;;;;;;;4935270;29;20711;-72
2021/07/04 05:41:02;;;;;;;21.67;19.77;;;;;;;;;;4935245;29;20208;-72
2021/07/04 05:43:48;;;;;;;23.27;21.07;;;;;;;;;;4934194;29;20216;-71
2021/07/04 05:46:33;;;;;;;23.73;21.63;;;;;;;;;;4934816;29;20324;-72
2021/07/04 05:49:18;;;;;;;26.50;24.10;;;;;;;;;;4935163;29;20583;-72
2021/07/04 05:52:05;;;;;;;32.27;28.97;;;;;;;;;;4934973;29;20218;-72
2021/07/04 05:54:50;;;;;;;32.87;29.77;;;;;;;;;;4934382;29;20711;-72
2021/07/04 05:57:35;;;;;;;33.13;29.87;;;;;;;;;;4935055;29;20260;-72
2021/07/04 06:00:20;;;;;;;34.53;31.20;;;;;;;;;;4934867;29;20628;-73
2021/07/04 06:03:05;;;;;;;38.63;34.87;;;;;;;;;;4934329;29;20623;-72
2021/07/04 06:05:50;;;;;;;41.17;36.90;;;;;;;;;;4934764;29;20232;-72
2021/07/04 06:08:37;;;;;;;42.43;38.23;;;;;;;;;;4934789;29;20575;-72
2021/07/04 06:11:21;;;;;;;42.10;38.07;;;;;;;;;;4934700;29;20256;-72
2021/07/04 06:14:07;;;;;;;45.30;40.67;;;;;;;;;;4933510;29;20221;-72
2021/07/04 06:16:52;;;;;;;43.40;38.93;;;;;;;;;;4934235;29;20244;-71
2021/07/04 06:19:37;;;;;;;42.83;38.23;;;;;;;;;;4934601;29;20260;-72
2021/07/04 06:22:22;;;;;;;42.00;37.57;;;;;;;;;;4934286;29;20205;-72
2021/07/04 06:25:10;;;;;;;42.03;37.60;;;;;;;;;;4934333;29;20232;-72
2021/07/04 06:27:55;;;;;;;42.00;37.93;;;;;;;;;;4934226;29;20875;-72
2021/07/04 06:30:40;;;;;;;40.27;36.30;;;;;;;;;;4934332;29;20291;-72
2021/07/04 06:33:25;;;;;;;37.83;34.27;;;;;;;;;;4933307;29;20244;-72
2021/07/04 06:36:10;;;;;;;42.03;37.47;;;;;;;;;;4934045;29;20276;-72
2021/07/04 06:38:55;;;;;;;44.10;39.80;;;;;;;;;;4934307;29;20217;-72
2021/07/04 06:41:41;;;;;;;39.90;36.00;;;;;;;;;;4934219;29;20582;-72
2021/07/04 06:44:26;;;;;;;38.83;35.03;;;;;;;;;;4933258;29;20224;-72
2021/07/04 06:47:11;;;;;;;38.00;34.33;;;;;;;;;;4934111;29;20681;-72
2021/07/04 06:49:56;;;;;;;40.00;36.20;;;;;;;;;;4934075;29;20345;-72
2021/07/04 06:52:41;;;;;;;40.83;36.77;;;;;;;;;;4933307;29;20222;-72
2021/07/04 06:55:27;;;;;;;43.93;39.73;;;;;;;;;;4933002;29;20414;-71
2021/07/04 06:58:13;;;;;;;40.60;36.63;;;;;;;;;;4933855;29;20796;-71
2021/07/04 07:00:58;;;;;;;41.60;37.33;;;;;;;;;;4934055;29;20209;-72
2021/07/04 07:03:43;;;;;;;40.77;36.73;;;;;;;;;;4933564;29;20216;-71
2021/07/04 07:06:28;;;;;;;41.57;37.47;;;;;;;;;;4934096;29;20245;-72
2021/07/04 07:09:13;;;;;;;42.03;38.03;;;;;;;;;;4934192;29;20309;-72
2021/07/04 07:11:57;;;;;;;42.30;38.10;;;;;;;;;;4934172;29;20589;-71
2021/07/04 07:14:44;;;;;;;41.90;37.70;;;;;;;;;;4933456;29;20294;-72
2021/07/04 07:17:29;;;;;;;41.77;37.77;;;;;;;;;;4934226;29;20216;-72
2021/07/04 07:20:14;;;;;;;40.43;36.60;;;;;;;;;;4933906;29;20577;-72
2021/07/04 07:22:59;;;;;;;38.53;34.70;;;;;;;;;;4933243;29;20208;-71
2021/07/04 07:25:44;;;;;;;40.00;36.10;;;;;;;;;;4933366;29;20227;-72
2021/07/04 07:28:29;;;;;;;41.10;37.00;;;;;;;;;;4933476;29;20202;-72
2021/07/04 07:31:15;;;;;;;43.83;39.80;;;;;;;;;;4932947;29;20434;-72
2021/07/04 07:34:00;;;;;;;42.90;38.63;;;;;;;;;;4932888;29;20284;-72
2021/07/04 07:36:45;;;;;;;40.57;36.77;;;;;;;;;;4933751;29;20234;-71
2021/07/04 07:39:30;;;;;;;37.63;34.10;;;;;;;;;;4933478;29;20201;-71
2021/07/04 07:42:16;;;;;;;37.03;33.57;;;;;;;;;;4937595;29;20221;-70
2021/07/04 07:45:01;;;;;;;37.57;34.13;;;;;;;;;;4937865;29;20512;-72
2021/07/04 07:47:47;;;;;;;38.20;34.57;;;;;;;;;;4937336;29;20630;-72
2021/07/04 07:50:34;;;;;;;38.42;35.03;;;;;;;;;;4936846;29;20442;-72
2021/07/04 07:53:19;;;;;;;36.13;32.83;;;;;;;;;;4936523;29;20331;-71
2021/07/04 07:56:04;;;;;;;37.20;33.70;;;;;;;;;;4937067;29;20232;-72
2021/07/04 07:58:50;;;;;;;35.97;32.60;;;;;;;;;;4937193;29;20213;-72
2021/07/04 08:01:35;;;;;;;37.03;33.63;;;;;;;;;;4937779;29;20215;-72
2021/07/04 08:04:21;;;;;;;35.47;32.23;;;;;;;;;;4936432;29;20214;-72
2021/07/04 08:07:06;;;;;;;34.93;31.93;;;;;;;;;;4939029;29;20706;-72
2021/07/04 08:09:51;;;;;;;34.33;31.13;;;;;;;;;;4948960;29;20209;-74
2021/07/04 08:12:36;;;;;;;35.40;32.10;;;;;;;;;;4939867;29;20265;-73
2021/07/04 08:15:21;;;;;;;34.50;31.37;;;;;;;;;;4918117;29;20467;-72
2021/07/04 08:18:07;;;;;;;34.77;31.63;;;;;;;;;;4925288;29;20221;-72
2021/07/04 08:20:53;;;;;;;34.07;31.20;;;;;;;;;;4940863;29;20312;-72
2021/07/04 08:23:38;;;;;;;32.97;30.07;;;;;;;;;;4938320;29;20252;-72
2021/07/04 08:26:23;;;;;;;33.17;30.23;;;;;;;;;;4937523;29;20234;-72
2021/07/04 08:29:08;;;;;;;33.63;30.53;;;;;;;;;;4937379;29;20210;-72
2021/07/04 08:31:53;;;;;;;33.60;30.50;;;;;;;;;;4937138;29;20604;-72
2021/07/04 08:34:38;;;;;;;33.60;30.50;;;;;;;;;;4935644;29;20311;-72
2021/07/04 08:37:24;;;;;;;33.67;30.57;;;;;;;;;;4936612;29;20246;-72
2021/07/04 08:40:10;;;;;;;31.47;28.77;;;;;;;;;;4936283;29;20213;-72
2021/07/04 08:42:55;;;;;;;31.13;28.47;;;;;;;;;;4935673;29;20336;-72
2021/07/04 08:45:40;;;;;;;33.20;30.20;;;;;;;;;;4936330;29;20543;-72
2021/07/04 08:48:25;;;;;;;37.30;34.22;;;;;;;;;;4935165;29;20562;-72
2021/07/04 08:51:11;;;;;;;33.43;30.53;;;;;;;;;;4936164;29;20268;-72
2021/07/04 08:53:58;;;;;;;34.80;31.67;;;;;;;;;;4935266;29;20229;-72
2021/07/04 08:56:43;;;;;;;34.73;31.73;;;;;;;;;;4936113;29;20288;-72
2021/07/04 08:59:28;;;;;;;33.37;30.47;;;;;;;;;;4936272;29;20408;-72
2021/07/04 09:02:14;;;;;;;35.53;32.23;;;;;;;;;;4935952;29;20212;-72
2021/07/04 09:05:00;;;;;;;33.13;30.33;;;;;;;;;;4935886;29;20284;-72
2021/07/04 09:07:46;;;;;;;33.40;30.50;;;;;;;;;;4935962;29;20213;-72
2021/07/04 09:10:33;;;;;;;33.47;30.57;;;;;;;;;;4936244;29;20300;-72
2021/07/04 09:13:24;;;;;;;33.57;30.67;;;;;;;;;;4935029;29;20225;-72
2021/07/04 09:16:10;;;;;;;34.40;31.30;;;;;;;;;;4935760;29;20373;-71
2021/07/04 09:19:12;;;;;;;33.03;30.13;;;;;;;;;;4935475;29;20581;-72
2021/07/04 09:21:57;;;;;;;33.72;30.83;;;;;;;;;;4935591;29;20422;-72
2021/07/04 09:24:43;;;;;;;34.63;31.23;;;;;;;;;;4934870;29;20228;-72
2021/07/04 09:27:29;;;;;;;32.67;29.80;;;;;;;;;;4935721;29;20265;-72
2021/07/04 09:30:16;;;;;;;33.07;30.07;;;;;;;;;;4935687;29;20207;-72
2021/07/04 09:33:09;;;;;;;32.67;29.87;;;;;;;;;;4934882;29;20206;-71
2021/07/04 09:35:56;;;;;;;31.27;28.40;;;;;;;;;;4935588;29;20225;-72
2021/07/04 09:38:42;;;;;;;31.60;28.90;;;;;;;;;;4936270;29;20212;-72
2021/07/04 09:41:26;;;;;;;33.50;30.50;;;;;;;;;;4935420;29;20297;-72
2021/07/04 09:44:24;;;;;;;34.13;31.43;;;;;;;;;;4933319;29;20535;-72
2021/07/04 09:47:19;;;;;;;32.03;29.23;;;;;;;;;;4935189;29;20952;-72
2021/07/04 09:50:05;;;;;;;32.43;29.57;;;;;;;;;;4935170;29;20862;-72
2021/07/04 09:53:00;;;;;;;31.40;28.60;;;;;;;;;;4934311;29;20208;-72
2021/07/04 09:55:45;;;;;;;31.77;29.07;;;;;;;;;;4935076;29;20231;-72
2021/07/04 09:58:34;;;;;;;30.83;28.23;;;;;;;;;;4934991;29;20229;-72
2021/07/04 10:01:34;;;;;;;31.17;28.40;;;;;;;;;;4934932;29;20340;-72
2021/07/04 10:04:25;;;;;;;32.70;29.63;;;;;;;;;;4933375;29;20209;-72
2021/07/04 10:07:10;;;;;;;30.50;27.80;;;;;;;;;;4934783;29;20212;-72
2021/07/04 10:09:55;;;;;;;30.97;28.17;;;;;;;;;;4934707;29;20211;-72
2021/07/04 10:12:41;;;;;;;30.80;28.13;;;;;;;;;;4933966;29;20345;-72
2021/07/04 10:15:26;;;;;;;30.33;27.63;;;;;;;;;;4934130;29;20280;-72
2021/07/04 10:18:13;;;;;;;30.38;27.58;;;;;;;;;;4934566;29;20143;-72
2021/07/04 10:20:58;;;;;;;29.27;26.60;;;;;;;;;;4934538;29;20687;-72
2021/07/04 10:23:46;;;;;;;28.77;26.20;;;;;;;;;;4933795;29;20221;-72
2021/07/04 10:26:35;;;;;;;30.13;27.43;;;;;;;;;;4934309;29;20229;-72
2021/07/04 10:29:22;;;;;;;28.17;25.77;;;;;;;;;;4934709;29;20205;-72
2021/07/04 10:32:08;;;;;;;27.50;25.10;;;;;;;;;;4934191;29;20309;-72
2021/07/04 10:35:04;;;;;;;27.30;24.73;;;;;;;;;;4933416;29;20236;-72
2021/07/04 10:37:49;;;;;;;27.70;25.30;;;;;;;;;;4933976;29;20232;-72
2021/07/04 10:40:37;;;;;;;28.55;26.13;;;;;;;;;;4933108;29;20426;-72
2021/07/04 10:43:42;;;;;;;24.00;21.90;;;;;;;;;;4933595;29;20213;-72
2021/07/04 10:46:48;;;;;;;20.47;18.77;;;;;;;;;;4934031;29;20224;-72
2021/07/04 10:49:36;;;;;;;19.87;18.17;;;;;;;;;;4934184;29;20337;-72
2021/07/04 10:52:24;;;;;;;20.23;18.53;;;;;;;;;;4933918;29;20672;-72
2021/07/04 10:55:10;;;;;;;19.30;17.60;;;;;;;;;;4933615;29;20597;-72
2021/07/04 10:57:56;;;;;;;19.57;17.87;;;;;;;;;;4933955;29;20332;-72
2021/07/04 11:00:42;;;;;;;19.67;17.80;;;;;;;;;;4933950;29;20292;-72
2021/07/04 11:03:27;;;;;;;18.80;16.97;;;;;;;;;;4933153;29;20741;-72
2021/07/04 11:06:12;;;;;;;17.13;15.67;;;;;;;;;;4933663;29;20236;-73
2021/07/04 11:08:59;;;;;;;17.13;15.73;;;;;;;;;;4933889;29;20237;-72
2021/07/04 11:11:43;;;;;;;20.73;18.90;;;;;;;;;;4933710;29;20288;-72
2021/07/04 11:14:28;;;;;;;22.40;20.23;;;;;;;;;;4932164;29;20316;-72
2021/07/04 11:17:13;;;;;;;20.97;18.97;;;;;;;;;;4970325;23;20239;-69
2021/07/04 11:20:08;;;;;;;21.07;19.07;;;;;;;;;;4952705;29;20230;-70
2021/07/04 11:22:56;;;;;;;20.17;18.47;;;;;;;;;;4951974;29;20245;-71
2021/07/04 11:25:43;;;;;;;20.07;18.37;;;;;;;;;;4952604;29;20347;-70
2021/07/04 11:28:31;;;;;;;19.80;18.00;;;;;;;;;;4952363;29;20205;-70
2021/07/04 11:31:26;;;;;;;20.73;18.83;;;;;;;;;;4952746;29;20228;-70
2021/07/04 11:34:11;;;;;;;21.00;19.20;;;;;;;;;;4951607;29;20223;-70
2021/07/04 11:36:56;;;;;;;22.10;20.20;;;;;;;;;;4951304;29;20468;-71
2021/07/04 11:39:41;;;;;;;17.50;16.00;;;;;;;;;;4952469;29;20227;-70
2021/07/04 11:42:27;;;;;;;17.83;16.23;;;;;;;;;;4952346;29;20213;-71
2021/07/04 11:45:16;;;;;;;17.90;16.40;;;;;;;;;;4952129;29;20205;-71
2021/07/04 11:48:01;;;;;;;18.00;16.40;;;;;;;;;;4952379;29;20212;-70
2021/07/04 11:50:47;;;;;;;21.97;19.97;;;;;;;;;;4952401;29;20312;-70
2021/07/04 11:53:32;;;;;;;19.63;17.93;;;;;;;;;;4952113;29;20333;-70
2021/07/04 11:56:17;;;;;;;20.43;18.53;;;;;;;;;;4952216;29;20310;-69
2021/07/04 11:59:07;;;;;;;19.57;17.87;;;;;;;;;;4952335;29;20212;-70
2021/07/04 12:01:54;;;;;;;21.70;19.80;;;;;;;;;;4952264;29;20204;-70
2021/07/04 12:04:44;;;;;;;20.07;18.27;;;;;;;;;;4951643;29;20201;-70
2021/07/04 12:07:28;;;;;;;20.93;19.23;;;;;;;;;;4952328;29;20225;-70
2021/07/04 12:10:14;;;;;;;23.57;21.43;;;;;;;;;;4952189;29;20292;-71
2021/07/04 12:12:59;;;;;;;22.63;20.63;;;;;;;;;;4951586;29;20296;-70
2021/07/04 12:15:49;;;;;;;20.07;18.27;;;;;;;;;;4951817;29;20749;-71
2021/07/04 12:18:36;;;;;;;19.67;18.00;;;;;;;;;;4952309;29;20212;-70
2021/07/04 12:21:21;;;;;;;18.20;16.57;;;;;;;;;;4952185;29;20207;-70
2021/07/04 12:24:06;;;;;;;16.23;14.93;;;;;;;;;;4951497;29;20248;-71
2021/07/04 12:26:51;;;;;;;18.03;16.33;;;;;;;;;;4953618;28;20232;-70
2021/07/04 12:29:54;;;;;;;16.73;15.23;;;;;;;;;;4955846;29;20207;-71
2021/07/04 12:32:42;;;;;;;13.75;12.65;;;;;;;;;;4954403;29;20419;-70
2021/07/04 12:35:29;;;;;;;10.53;9.70;;;;;;;;;;4955346;29;20232;-71
2021/07/04 12:38:15;;;;;;;13.97;12.60;;;;;;;;;;4955658;29;20208;-70
2021/07/04 12:41:01;;;;;;;15.50;13.97;;;;;;;;;;4955699;29;20212;-71
2021/07/04 12:43:47;;;;;;;15.10;13.83;;;;;;;;;;4954975;29;20555;-69
2021/07/04 12:46:36;;;;;;;14.83;13.53;;;;;;;;;;4955496;29;20729;-70
2021/07/04 12:49:23;;;;;;;12.73;11.57;;;;;;;;;;4955422;29;20200;-70
2021/07/04 12:52:08;;;;;;;13.40;12.27;;;;;;;;;;4955398;29;20212;-71
2021/07/04 12:54:53;;;;;;;15.20;13.73;;;;;;;;;;4954755;29;20238;-70
2021/07/04 12:57:39;;;;;;;12.07;11.03;;;;;;;;;;4955316;29;20619;-69
2021/07/04 13:00:24;;;;;;;10.90;9.80;;;;;;;;;;4955223;29;20704;-69
2021/07/04 13:03:10;;;;;;;11.03;9.93;;;;;;;;;;4954266;29;20208;-71
2021/07/04 13:05:56;;;;;;;11.57;10.63;;;;;;;;;;4954974;29;20227;-72
2021/07/04 13:08:41;;;;;;;11.82;10.82;;;;;;;;;;4954037;29;20463;-70
2021/07/04 13:11:26;;;;;;;12.53;11.43;;;;;;;;;;4955144;29;20212;-69
2021/07/04 13:14:12;;;;;;;11.23;10.33;;;;;;;;;;4954090;29;20574;-70
2021/07/04 13:16:57;;;;;;;10.90;9.90;;;;;;;;;;4954683;29;20257;-71
2021/07/04 13:19:42;;;;;;;11.57;10.47;;;;;;;;;;4955085;29;20216;-69
2021/07/04 13:22:30;;;;;;;11.33;10.43;;;;;;;;;;4954671;29;20305;-68
2021/07/04 13:25:16;;;;;;;12.07;10.97;;;;;;;;;;4954677;29;20204;-71
2021/07/04 13:28:02;;;;;;;13.27;12.10;;;;;;;;;;4954841;29;20686;-69
2021/07/04 13:30:50;;;;;;;12.30;11.10;;;;;;;;;;4954956;29;20592;-70
2021/07/04 13:33:36;;;;;;;11.47;10.57;;;;;;;;;;4954058;29;20204;-71
2021/07/04 13:36:21;;;;;;;12.27;11.20;;;;;;;;;;4954158;29;20240;-70
2021/07/04 13:39:07;;;;;;;12.27;11.13;;;;;;;;;;4953622;28;20609;-69
2021/07/04 13:41:52;;;;;;;12.10;11.03;;;;;;;;;;4954452;29;20261;-71
2021/07/04 13:44:37;;;;;;;11.27;10.33;;;;;;;;;;4953804;29;20204;-69
2021/07/04 13:47:23;;;;;;;11.33;10.33;;;;;;;;;;4954252;29;20237;-70
2021/07/04 13:50:08;;;;;;;13.57;12.27;;;;;;;;;;4954138;29;20212;-71
2021/07/04 13:52:53;;;;;;;15.00;13.67;;;;;;;;;;4953588;29;20344;-70
2021/07/04 13:55:40;;;;;;;9.97;9.10;;;;;;;;;;4954020;29;20232;-70
2021/07/04 13:58:25;;;;;;;9.23;8.50;;;;;;;;;;4940124;29;20289;-70
2021/07/04 14:01:10;;;;;;;9.47;8.77;;;;;;;;;;4934891;29;20705;-70
2021/07/04 14:03:55;;;;;;;10.60;9.70;;;;;;;;;;4945018;29;20469;-68
2021/07/04 14:06:40;;;;;;;10.10;9.30;;;;;;;;;;4938906;29;20224;-69
2021/07/04 14:09:26;;;;;;;10.60;9.70;;;;;;;;;;4940329;29;20244;-69
2021/07/04 14:12:12;;;;;;;10.97;9.97;;;;;;;;;;4940192;29;20217;-70
2021/07/04 14:14:58;;;;;;;11.37;10.47;;;;;;;;;;4933140;29;20342;-69
2021/07/04 14:17:43;;;;;;;12.00;7.03;;;;;;;;;;4933350;29;20710;-70
2021/07/04 14:20:28;;;;;;;3.47;2.40;;;;;;;;;;4941671;29;20208;-72
2021/07/04 14:23:13;;;;;;;2.47;2.23;;;;;;;;;;4949694;29;20576;-71
2021/07/04 14:25:58;;;;;;;3.53;3.03;;;;;;;;;;4935344;29;20472;-72
2021/07/04 14:28:45;;;;;;;2.83;1.93;;;;;;;;;;4933413;29;20213;-69
2021/07/04 14:31:30;;;;;;;3.43;1.63;;;;;;;;;;4933121;29;20209;-69
2021/07/04 14:34:15;;;;;;;2.07;1.87;;;;;;;;;;4931496;29;20216;-69
2021/07/04 14:37:01;;;;;;;2.40;1.37;;;;;;;;;;4934901;29;20237;-69
2021/07/04 14:39:46;;;;;;;2.77;1.53;;;;;;;;;;4934371;29;20254;-69
2021/07/04 14:42:31;;;;;;;2.90;1.67;;;;;;;;;;4940201;29;20209;-73
2021/07/04 14:45:18;;;;;;;2.63;1.90;;;;;;;;;;4944001;29;20213;-69
2021/07/04 14:48:03;;;;;;;4.20;1.77;;;;;;;;;;4943806;29;20717;-69
2021/07/04 14:50:50;;;;;;;2.83;1.80;;;;;;;;;;4932969;28;20217;-69
2021/07/04 14:53:39;;;;;;;3.63;1.67;;;;;;;;;;4937122;29;20917;-71
2021/07/04 14:56:25;;;;;;;4.87;1.50;;;;;;;;;;4942537;29;20373;-71
2021/07/04 14:59:10;;;;;;;2.07;1.30;;;;;;;;;;4935555;29;20263;-69
2021/07/04 15:01:56;;;;;;;2.40;1.70;;;;;;;;;;4935199;29;20475;-71
2021/07/04 15:04:42;;;;;;;1.77;1.60;;;;;;;;;;4949053;29;20215;-71
2021/07/04 15:07:26;;;;;;;2.97;1.30;;;;;;;;;;4938834;29;20256;-71
2021/07/04 15:10:12;;;;;;;1.50;1.40;;;;;;;;;;4936773;29;20719;-72
2021/07/04 15:12:57;;;;;;;1.60;1.50;;;;;;;;;;4949512;29;20315;-71
2021/07/04 15:15:41;;;;;;;1.67;1.37;;;;;;;;;;4949067;29;20227;-72
2021/07/04 15:18:28;;;;;;;1.67;1.27;;;;;;;;;;4939298;29;20308;-71
2021/07/04 15:21:13;;;;;;;1.70;1.60;;;;;;;;;;4941924;29;20412;-72
2021/07/04 15:23:58;;;;;;;1.80;1.70;;;;;;;;;;4942000;29;20207;-71
2021/07/04 15:26:43;;;;;;;2.47;1.60;;;;;;;;;;4948056;29;20224;-69
2021/07/04 15:29:28;;;;;;;2.03;1.60;;;;;;;;;;4936023;29;20824;-71
2021/07/04 15:32:13;;;;;;;1.77;1.67;;;;;;;;;;4940929;29;20304;-70
2021/07/04 15:34:59;;;;;;;1.70;1.60;;;;;;;;;;4932304;29;20861;-70
2021/07/04 15:37:44;;;;;;;1.70;1.60;;;;;;;;;;4947783;29;20635;-72
2021/07/04 15:40:29;;;;;;;2.27;1.70;;;;;;;;;;4944107;29;20217;-70
2021/07/04 15:43:14;;;;;;;2.63;2.10;;;;;;;;;;4944426;29;20205;-70
2021/07/04 15:46:00;;;;;;;2.77;1.83;;;;;;;;;;4932188;29;20230;-69
2021/07/04 15:48:45;;;;;;;1.60;1.50;;;;;;;;;;4947264;29;20201;-70
2021/07/04 15:51:31;;;;;;;2.07;1.70;;;;;;;;;;4934935;29;20314;-70
2021/07/04 15:54:17;;;;;;;1.20;1.20;;;;;;;;;;4937905;29;20734;-70
2021/07/04 15:57:02;;;;;;;1.35;1.33;;;;;;;;;;4942702;29;20453;-70
2021/07/04 15:59:47;;;;;;;2.37;1.77;;;;;;;;;;4947305;29;20216;-70
2021/07/04 16:02:32;;;;;;;1.60;1.50;;;;;;;;;;4948630;29;20332;-70
2021/07/04 16:05:17;;;;;;;1.67;1.57;;;;;;;;;;4939620;29;20694;-69
2021/07/04 16:08:04;;;;;;;1.60;1.50;;;;;;;;;;4948863;29;20897;-70
2021/07/04 16:10:49;;;;;;;1.97;1.40;;;;;;;;;;4939604;29;20213;-70
2021/07/04 16:13:34;;;;;;;1.80;1.70;;;;;;;;;;4935232;29;20217;-69
2021/07/04 16:16:19;;;;;;;1.50;1.40;;;;;;;;;;4944831;29;20376;-72
2021/07/04 16:19:04;;;;;;;1.95;1.83;;;;;;;;;;4941612;29;20859;-72
2021/07/04 16:21:50;;;;;;;2.10;1.90;;;;;;;;;;4936998;29;20582;-69
2021/07/04 16:24:39;;;;;;;2.60;1.70;;;;;;;;;;4947669;29;20562;-70
2021/07/04 16:27:25;;;;;;;2.23;1.90;;;;;;;;;;4945488;29;20228;-69
2021/07/04 16:30:12;;;;;;;1.90;1.80;;;;;;;;;;4946379;29;20204;-70
2021/07/04 16:32:57;;;;;;;2.20;2.07;;;;;;;;;;4944002;29;20365;-70
2021/07/04 16:35:42;;;;;;;1.93;1.83;;;;;;;;;;4945748;29;20236;-69
2021/07/04 16:38:27;;;;;;;3.10;2.10;;;;;;;;;;4939352;29;20209;-69
2021/07/04 16:41:13;;;;;;;4.23;2.23;;;;;;;;;;4946957;29;20220;-70
2021/07/04 16:43:59;;;;;;;2.40;2.30;;;;;;;;;;4953828;29;20228;-70
2021/07/04 16:46:44;;;;;;;3.10;2.90;;;;;;;;;;4952757;29;20600;-70
2021/07/04 16:49:29;;;;;;;2.30;2.20;;;;;;;;;;4953836;29;20200;-70
2021/07/04 16:52:14;;;;;;;2.17;2.07;;;;;;;;;;4948913;29;20277;-72
2021/07/04 16:54:59;;;;;;;2.77;1.87;;;;;;;;;;4940129;29;20584;-69
2021/07/04 16:57:46;;;;;;;2.60;2.13;;;;;;;;;;4952499;29;20212;-69
2021/07/04 17:00:34;;;;;;;2.10;2.00;;;;;;;;;;4946457;29;20224;-69
2021/07/04 17:03:19;;;;;;;2.63;2.43;;;;;;;;;;4952072;29;20219;-68
2021/07/04 17:06:04;;;;;;;3.03;2.83;;;;;;;;;;4954553;29;20344;-71
2021/07/04 17:08:49;;;;;;;2.57;2.37;;;;;;;;;;4938805;29;20261;-70
2021/07/04 17:11:35;;;;;;;3.17;2.60;;;;;;;;;;4950769;29;20340;-72
2021/07/04 17:14:21;;;;;;;2.67;2.47;;;;;;;;;;4951889;29;20611;-72
2021/07/04 17:17:07;;;;;;;2.87;2.67;;;;;;;;;;4950998;29;20925;-70
2021/07/04 17:19:52;;;;;;;3.10;2.90;;;;;;;;;;4948134;29;20946;-69
2021/07/04 17:22:37;;;;;;;3.50;3.30;;;;;;;;;;4938157;29;20262;-70
2021/07/04 17:25:23;;;;;;;3.87;3.67;;;;;;;;;;4953469;29;20260;-72
2021/07/04 17:28:08;;;;;;;5.27;4.87;;;;;;;;;;4953852;29;20207;-72
2021/07/04 17:30:54;;;;;;;5.23;4.93;;;;;;;;;;4935298;29;20703;-71
2021/07/04 17:33:39;;;;;;;4.80;4.40;;;;;;;;;;4935710;29;20209;-70
2021/07/04 17:36:25;;;;;;;4.70;4.40;;;;;;;;;;4934995;29;20734;-70
2021/07/04 17:39:11;;;;;;;4.90;4.60;;;;;;;;;;4935054;29;20228;-72
2021/07/04 17:41:56;;;;;;;4.73;4.40;;;;;;;;;;4944229;29;20209;-70
2021/07/04 17:44:41;;;;;;;5.50;5.20;;;;;;;;;;4952914;29;20229;-71
2021/07/04 17:47:27;;;;;;;6.00;5.50;;;;;;;;;;4955292;29;20232;-70
2021/07/04 17:50:13;;;;;;;7.43;6.83;;;;;;;;;;4954158;29;20208;-71
2021/07/04 17:53:01;;;;;;;7.43;6.93;;;;;;;;;;4953437;29;20213;-69
2021/07/04 17:55:46;;;;;;;7.17;6.67;;;;;;;;;;4950148;29;20233;-71
2021/07/04 17:58:31;;;;;;;7.30;6.90;;;;;;;;;;4943496;29;20596;-70
2021/07/04 18:01:16;;;;;;;6.73;6.13;;;;;;;;;;4952093;29;20213;-71
2021/07/04 18:04:03;;;;;;;7.57;7.07;;;;;;;;;;4943570;29;20308;-70
2021/07/04 18:06:48;;;;;;;7.00;6.50;;;;;;;;;;4935206;29;20256;-70
2021/07/04 18:09:33;;;;;;;5.83;5.43;;;;;;;;;;4934731;29;20210;-71
2021/07/04 18:12:18;;;;;;;7.17;6.67;;;;;;;;;;4953539;29;20237;-69
2021/07/04 18:15:04;;;;;;;7.67;7.07;;;;;;;;;;4944549;29;20757;-69
2021/07/04 18:17:49;;;;;;;8.53;7.80;;;;;;;;;;4947702;29;20247;-70
2021/07/04 18:20:35;;;;;;;9.20;8.50;;;;;;;;;;4946883;29;20694;-69
2021/07/04 18:23:20;;;;;;;7.50;6.90;;;;;;;;;;4933833;29;20220;-70
2021/07/04 18:26:07;;;;;;;8.20;7.50;;;;;;;;;;4934228;29;20621;-70
2021/07/04 18:28:52;;;;;;;7.93;7.40;;;;;;;;;;4934050;29;20233;-69
2021/07/04 18:31:37;;;;;;;8.80;8.10;;;;;;;;;;4934098;29;20286;-69
2021/07/04 18:34:21;;;;;;;7.90;7.33;;;;;;;;;;4933463;29;20783;-70
2021/07/04 18:37:09;;;;;;;9.17;8.27;;;;;;;;;;4943131;29;20224;-68
2021/07/04 18:39:55;;;;;;;7.57;7.07;;;;;;;;;;4950796;29;20334;-69
2021/07/04 18:42:40;;;;;;;7.80;7.10;;;;;;;;;;4933994;29;20282;-70
2021/07/04 18:45:27;;;;;;;7.73;7.13;;;;;;;;;;4938530;29;20225;-71
2021/07/04 18:48:11;;;;;;;8.35;7.75;;;;;;;;;;4945236;29;20429;-68
2021/07/04 18:50:57;;;;;;;11.13;10.23;;;;;;;;;;4945270;29;20216;-69
2021/07/04 18:53:43;;;;;;;11.97;10.97;;;;;;;;;;4947995;29;20224;-68
2021/07/04 18:56:28;;;;;;;12.20;11.10;;;;;;;;;;4941782;29;20728;-68
2021/07/04 18:59:13;;;;;;;11.13;10.07;;;;;;;;;;4951175;29;20292;-68
2021/07/04 19:01:58;;;;;;;11.10;10.00;;;;;;;;;;4945817;29;20212;-68
2021/07/04 19:04:44;;;;;;;10.70;9.60;;;;;;;;;;4951998;28;20638;-68
2021/07/04 19:07:32;;;;;;;10.75;9.70;;;;;;;;;;4950923;29;21015;-67
2021/07/04 19:10:20;;;;;;;9.17;8.37;;;;;;;;;;4935672;29;20220;-66
2021/07/04 19:13:07;;;;;;;8.50;7.77;;;;;;;;;;4934087;29;20209;-67
2021/07/04 19:15:52;;;;;;;8.67;7.83;;;;;;;;;;4948745;29;20249;-68
2021/07/04 19:18:37;;;;;;;8.43;7.63;;;;;;;;;;4946507;29;20215;-67
2021/07/04 19:21:24;;;;;;;9.17;8.23;;;;;;;;;;4941856;29;20291;-67
2021/07/04 19:24:08;;;;;;;9.37;7.70;;;;;;;;;;4940766;29;20324;-68
2021/07/04 19:26:56;;;;;;;8.63;7.83;;;;;;;;;;4948856;29;20225;-68
2021/07/04 19:29:41;;;;;;;8.20;7.50;;;;;;;;;;4946252;29;20688;-69
2021/07/04 19:32:26;;;;;;;8.80;7.83;;;;;;;;;;4951708;29;20215;-69
2021/07/04 19:35:12;;;;;;;8.53;7.70;;;;;;;;;;4943905;29;20278;-67
2021/07/04 19:37:57;;;;;;;8.40;7.70;;;;;;;;;;4947965;29;20602;-66
2021/07/04 19:40:43;;;;;;;8.83;8.03;;;;;;;;;;4933110;29;20209;-68
2021/07/04 19:43:29;;;;;;;9.83;7.80;;;;;;;;;;4932866;29;20222;-68
2021/07/04 19:46:16;;;;;;;8.37;7.40;;;;;;;;;;4943072;29;20222;-67
2021/07/04 19:49:01;;;;;;;8.57;7.67;;;;;;;;;;4947890;29;20222;-68
2021/07/04 19:51:46;;;;;;;8.00;7.30;;;;;;;;;;4951759;29;20700;-68
2021/07/04 19:54:31;;;;;;;8.20;7.50;;;;;;;;;;4951577;29;20804;-68
2021/07/04 19:57:21;;;;;;;9.47;8.57;;;;;;;;;;4933024;29;20272;-69
